createdAt,value
2018-04-01T00:01:07.706Z,98.30
2018-04-01T00:03:38.859Z,98.50
2018-04-01T00:06:06.675Z,98.50
2018-04-01T00:08:33.717Z,98.40
2018-04-01T00:11:00.759Z,98.20
2018-04-01T00:13:27.775Z,98.00
2018-04-01T00:15:54.840Z,98.30
2018-04-01T00:18:21.892Z,97.60
2018-04-01T00:20:48.914Z,97.60
2018-04-01T00:23:16.697Z,96.90
2018-04-01T00:25:43.796Z,96.90
2018-04-01T00:28:10.805Z,97.10
2018-04-01T00:30:37.840Z,97.20
2018-04-01T00:33:04.894Z,97.20
2018-04-01T00:35:32.749Z,97.50
2018-04-01T00:37:59.808Z,97.50
2018-04-01T00:40:26.913Z,97.30
2018-04-01T00:42:54.742Z,96.40
2018-04-01T00:45:21.790Z,96.40
2018-04-01T00:47:48.822Z,96.20
2018-04-01T00:50:15.900Z,96.30
2018-04-01T00:52:42.939Z,96.00
2018-04-01T00:55:10.057Z,96.20
2018-04-01T00:57:37.098Z,96.30
2018-04-01T01:00:04.139Z,96.10
2018-04-01T01:02:31.245Z,97.10
2018-04-01T01:04:59.068Z,98.20
2018-04-01T01:07:26.073Z,98.20
2018-04-01T01:09:53.915Z,97.90
2018-04-01T01:12:21.012Z,98.30
2018-04-01T01:14:48.010Z,98.10
2018-04-01T01:17:15.057Z,98.30
2018-04-01T01:19:42.111Z,98.10
2018-04-01T01:22:09.237Z,98.10
2018-04-01T01:24:36.319Z,98.20
2018-04-01T01:27:04.178Z,97.50
2018-04-01T01:29:31.253Z,97.50
2018-04-01T01:31:59.162Z,97.30
2018-04-01T01:34:26.134Z,97.20
2018-04-01T01:36:53.148Z,96.50
2018-04-01T01:39:20.149Z,96.30
2018-04-01T01:41:47.149Z,96.30
2018-04-01T01:44:14.137Z,96.10
2018-04-01T01:46:41.142Z,96.20
2018-04-01T01:49:08.144Z,96.70
2018-04-01T01:51:35.154Z,97.10
2018-04-01T01:54:02.165Z,97.90
2018-04-01T01:56:29.176Z,97.90
2018-04-01T01:58:56.314Z,97.70
2018-04-01T02:01:23.378Z,97.40
2018-04-01T02:03:50.411Z,98.40
2018-04-01T02:06:18.223Z,98.40
2018-04-01T02:08:45.484Z,98.30
2018-04-01T02:11:12.516Z,96.80
2018-04-01T02:13:39.593Z,96.60
2018-04-01T02:16:06.610Z,96.90
2018-04-01T02:18:33.661Z,97.90
2018-04-01T02:21:00.809Z,98.50
2018-04-01T02:23:27.950Z,98.70
2018-04-01T02:25:55.032Z,98.20
2018-04-01T02:28:22.073Z,98.20
2018-04-01T02:30:49.113Z,97.70
2018-04-01T02:33:18.089Z,97.60
2018-04-01T02:35:45.220Z,97.30
2018-04-01T02:38:12.278Z,97.70
2018-04-01T02:40:39.350Z,97.70
2018-04-01T02:43:06.498Z,97.60
2018-04-01T02:45:33.577Z,97.80
2018-04-01T02:48:01.481Z,98.20
2018-04-01T02:50:28.549Z,98.20
2018-04-01T02:52:55.590Z,97.90
2018-04-01T02:55:22.646Z,97.60
2018-04-01T02:57:49.710Z,97.50
2018-04-01T03:00:16.859Z,97.80
2018-04-01T03:02:43.904Z,97.90
2018-04-01T03:05:10.959Z,97.90
2018-04-01T03:07:38.023Z,98.10
2018-04-01T03:10:05.066Z,98.10
2018-04-01T03:12:32.097Z,97.90
2018-04-01T03:14:59.126Z,98.00
2018-04-01T03:17:26.188Z,98.50
2018-04-01T03:19:53.247Z,98.90
2018-04-01T03:22:24.960Z,99.10
2018-04-01T03:24:51.986Z,99.00
2018-04-01T03:27:19.214Z,99.40
2018-04-01T03:29:46.238Z,99.50
2018-04-01T03:32:13.314Z,99.50
2018-04-01T03:34:41.116Z,98.70
2018-04-01T03:37:08.211Z,98.70
2018-04-01T03:39:36.053Z,98.90
2018-04-01T03:42:03.125Z,98.90
2018-04-01T03:44:30.992Z,98.60
2018-04-01T03:46:58.018Z,98.80
2018-04-01T03:49:25.078Z,99.00
2018-04-01T03:51:52.113Z,98.30
2018-04-01T03:54:20.118Z,98.50
2018-04-01T03:56:47.162Z,98.80
2018-04-01T03:59:14.197Z,98.60
2018-04-01T04:01:41.265Z,98.70
2018-04-01T04:04:08.287Z,98.80
2018-04-01T04:06:35.354Z,98.90
2018-04-01T04:09:02.401Z,99.00
2018-04-01T04:11:30.162Z,98.80
2018-04-01T04:13:57.176Z,98.70
2018-04-01T04:16:24.146Z,98.70
2018-04-01T04:18:51.895Z,98.90
2018-04-01T04:21:18.904Z,98.70
2018-04-01T04:23:45.899Z,99.00
2018-04-01T04:26:12.873Z,98.70
2018-04-01T04:28:39.867Z,98.60
2018-04-01T04:31:06.852Z,98.40
2018-04-01T04:33:34.584Z,98.20
2018-04-01T04:36:01.553Z,98.20
2018-04-01T04:38:29.300Z,98.20
2018-04-01T04:40:56.321Z,98.10
2018-04-01T04:43:23.371Z,98.20
2018-04-01T04:45:50.341Z,98.20
2018-04-01T04:48:17.341Z,98.30
2018-04-01T04:50:44.329Z,98.00
2018-04-01T04:55:44.780Z,98.30
2018-04-01T04:58:11.808Z,98.20
2018-04-01T05:00:38.780Z,98.30
2018-04-01T05:03:06.825Z,98.30
2018-04-01T05:05:33.893Z,98.30
2018-04-01T05:08:01.614Z,98.30
2018-04-01T05:10:28.686Z,98.20
2018-04-01T05:12:55.813Z,98.20
2018-04-01T05:15:22.911Z,98.30
2018-04-01T05:17:50.757Z,98.80
2018-04-01T05:20:17.861Z,98.80
2018-04-01T05:22:44.941Z,98.20
2018-04-01T05:25:11.993Z,98.40
2018-04-01T05:27:39.113Z,98.60
2018-04-01T05:30:06.896Z,99.00
2018-04-01T05:32:33.944Z,98.90
2018-04-01T05:35:01.116Z,98.90
2018-04-01T05:37:28.951Z,99.10
2018-04-01T05:39:56.077Z,99.10
2018-04-01T05:42:23.133Z,99.00
2018-04-01T05:44:50.237Z,98.70
2018-04-01T05:47:18.079Z,98.80
2018-04-01T05:49:45.177Z,98.80
2018-04-01T05:52:12.258Z,98.60
2018-04-01T05:54:39.290Z,98.80
2018-04-01T05:57:06.369Z,99.80
2018-04-01T05:59:33.504Z,99.60
2018-04-01T06:02:00.540Z,99.30
2018-04-01T06:04:27.553Z,99.40
2018-04-01T06:06:54.616Z,99.40
2018-04-01T06:09:21.945Z,99.60
2018-04-01T06:11:49.026Z,99.60
2018-04-01T06:14:16.054Z,99.50
2018-04-01T06:16:43.154Z,99.30
2018-04-01T06:19:10.280Z,99.50
2018-04-01T06:21:37.320Z,99.50
2018-04-01T06:24:04.387Z,99.60
2018-04-01T06:26:31.406Z,99.40
2018-04-01T06:28:58.456Z,99.20
2018-04-01T06:31:25.586Z,98.80
2018-04-01T06:33:52.599Z,99.30
2018-04-01T06:36:20.477Z,99.10
2018-04-01T06:38:47.552Z,99.10
2018-04-01T06:41:14.569Z,98.40
2018-04-01T06:43:42.369Z,97.80
2018-04-01T06:46:09.577Z,97.70
2018-04-01T06:48:37.317Z,98.40
2018-04-01T06:51:04.282Z,98.30
2018-04-01T06:53:32.068Z,99.00
2018-04-01T06:55:59.037Z,99.00
2018-04-01T06:58:26.002Z,98.90
2018-04-01T07:00:53.028Z,99.40
2018-04-01T07:03:20.022Z,99.20
2018-04-01T07:05:47.039Z,99.10
2018-04-01T07:08:14.045Z,99.80
2018-04-01T07:10:41.026Z,99.90
2018-04-01T07:13:08.376Z,99.80
2018-04-01T07:15:35.403Z,99.90
2018-04-01T07:18:02.406Z,99.90
2018-04-01T07:20:29.470Z,99.90
2018-04-01T07:22:57.238Z,99.90
2018-04-01T07:25:25.002Z,99.90
2018-04-01T07:27:52.779Z,99.90
2018-04-01T07:30:19.748Z,99.90
2018-04-01T07:32:46.732Z,99.90
2018-04-01T07:35:13.765Z,99.90
2018-04-01T07:37:40.737Z,99.90
2018-04-01T07:40:08.500Z,99.90
2018-04-01T07:42:35.476Z,99.90
2018-04-01T07:45:02.437Z,99.90
2018-04-01T07:47:29.464Z,99.90
2018-04-01T07:49:56.428Z,99.90
2018-04-01T07:52:23.417Z,99.90
2018-04-01T07:54:50.421Z,99.90
2018-04-01T07:57:17.371Z,99.90
2018-04-01T07:59:44.360Z,99.90
2018-04-01T08:02:12.101Z,99.90
2018-04-01T08:04:39.108Z,99.90
2018-04-01T08:07:12.380Z,99.90
2018-04-01T08:09:40.137Z,99.90
2018-04-01T08:12:07.877Z,99.90
2018-04-01T08:14:34.852Z,99.90
2018-04-01T08:17:02.673Z,99.90
2018-04-01T08:19:32.915Z,99.90
2018-04-01T08:21:59.941Z,99.90
2018-04-01T08:24:26.984Z,99.90
2018-04-01T08:26:53.988Z,99.90
2018-04-01T08:29:21.025Z,99.90
2018-04-01T08:31:48.781Z,99.90
2018-04-01T08:34:16.568Z,99.90
2018-04-01T08:36:47.179Z,99.90
2018-04-01T08:39:14.945Z,99.90
2018-04-01T08:41:42.685Z,99.90
2018-04-01T08:44:09.671Z,99.90
2018-04-01T08:46:36.663Z,99.90
2018-04-01T08:49:03.642Z,99.90
2018-04-01T08:51:31.655Z,99.90
2018-04-01T08:53:58.616Z,99.90
2018-04-01T08:56:25.583Z,99.90
2018-04-01T08:58:56.109Z,99.90
2018-04-01T09:01:23.074Z,99.90
2018-04-01T09:03:58.396Z,99.90
2018-04-01T09:06:25.368Z,99.90
2018-04-01T09:08:52.353Z,99.90
2018-04-01T09:11:19.357Z,99.90
2018-04-01T09:13:47.077Z,99.90
2018-04-01T09:16:14.073Z,99.90
2018-04-01T09:18:41.092Z,99.90
2018-04-01T09:21:08.053Z,99.90
2018-04-01T09:23:35.812Z,99.90
2018-04-01T09:26:03.584Z,99.90
2018-04-01T09:28:31.345Z,99.90
2018-04-01T09:30:59.076Z,99.90
2018-04-01T09:33:26.072Z,99.90
2018-04-01T09:35:53.056Z,99.90
2018-04-01T09:38:20.084Z,99.90
2018-04-01T09:40:47.104Z,99.90
2018-04-01T09:43:14.121Z,99.90
2018-04-01T09:45:41.048Z,99.90
2018-04-01T09:48:08.069Z,99.90
2018-04-01T09:50:35.032Z,99.90
2018-04-01T09:53:02.010Z,99.90
2018-04-01T09:55:30.685Z,99.30
2018-04-01T09:58:01.203Z,99.30
2018-04-01T10:00:28.190Z,98.60
2018-04-01T10:03:02.013Z,98.80
2018-04-01T10:05:29.742Z,99.00
2018-04-01T10:07:57.996Z,99.90
2018-04-01T10:10:25.867Z,99.90
2018-04-01T10:12:54.137Z,99.90
2018-04-01T10:15:21.629Z,99.90
2018-04-01T10:17:49.853Z,99.90
2018-04-01T10:20:17.334Z,99.90
2018-04-01T10:22:44.844Z,99.90
2018-04-01T10:25:12.323Z,99.90
2018-04-01T10:27:39.780Z,99.90
2018-04-01T10:30:08.040Z,99.90
2018-04-01T10:32:35.559Z,99.90
2018-04-01T10:35:02.975Z,99.90
2018-04-01T10:37:30.758Z,99.90
2018-04-01T10:39:58.998Z,99.90
2018-04-01T10:42:26.489Z,99.90
2018-04-01T10:44:53.954Z,99.90
2018-04-01T10:47:22.230Z,99.90
2018-04-01T10:49:49.703Z,99.90
2018-04-01T10:52:17.956Z,99.90
2018-04-01T10:54:44.920Z,99.90
2018-04-01T10:57:12.704Z,99.90
2018-04-01T10:59:39.687Z,99.90
2018-04-01T11:02:07.440Z,99.90
2018-04-01T11:04:34.428Z,99.90
2018-04-01T11:07:02.152Z,99.90
2018-04-01T11:09:29.150Z,99.90
2018-04-01T11:11:56.161Z,99.90
2018-04-01T11:14:23.141Z,99.90
2018-04-01T11:16:50.875Z,99.90
2018-04-01T11:19:17.868Z,99.90
2018-04-01T11:21:44.843Z,99.90
2018-04-01T11:24:15.405Z,99.90
2018-04-01T11:26:42.385Z,99.90
2018-04-01T11:29:09.371Z,99.90
2018-04-01T11:31:36.336Z,99.90
2018-04-01T11:34:03.332Z,99.90
2018-04-01T11:36:30.337Z,99.90
2018-04-01T11:38:58.098Z,99.90
2018-04-01T11:41:25.055Z,99.90
2018-04-01T11:43:52.833Z,99.90
2018-04-01T11:46:19.813Z,99.90
2018-04-01T11:48:46.792Z,99.90
2018-04-01T11:51:13.815Z,99.90
2018-04-01T11:53:40.800Z,99.90
2018-04-01T11:56:08.521Z,99.90
2018-04-01T11:58:35.534Z,99.90
2018-04-01T12:01:02.510Z,99.90
2018-04-01T12:03:29.544Z,99.90
2018-04-01T12:05:56.515Z,99.90
2018-04-01T12:08:23.474Z,99.90
2018-04-01T12:10:50.476Z,99.90
2018-04-01T12:13:17.472Z,99.90
2018-04-01T12:15:44.450Z,99.90
2018-04-01T12:18:11.440Z,99.90
2018-04-01T12:20:38.406Z,99.90
2018-04-01T12:23:05.399Z,99.90
2018-04-01T12:25:32.416Z,99.90
2018-04-01T12:28:00.149Z,99.90
2018-04-01T12:30:27.139Z,99.90
2018-04-01T12:32:54.125Z,99.90
2018-04-01T12:35:21.116Z,99.90
2018-04-01T12:37:48.104Z,99.90
2018-04-01T12:40:15.095Z,99.90
2018-04-01T12:42:42.071Z,99.90
2018-04-01T12:45:09.049Z,99.90
2018-04-01T12:47:36.069Z,99.90
2018-04-01T12:50:03.052Z,99.90
2018-04-01T12:52:30.036Z,99.90
2018-04-01T12:54:57.786Z,99.90
2018-04-01T12:57:25.560Z,99.90
2018-04-01T12:59:53.292Z,99.90
2018-04-01T13:02:20.256Z,99.90
2018-04-01T13:04:48.025Z,99.90
2018-04-01T13:07:15.776Z,99.90
2018-04-01T13:09:42.747Z,99.90
2018-04-01T13:12:10.489Z,99.90
2018-04-01T13:14:38.240Z,99.90
2018-04-01T13:17:05.808Z,99.90
2018-04-01T13:19:32.780Z,99.90
2018-04-01T13:21:59.772Z,99.90
2018-04-01T13:24:26.756Z,99.90
2018-04-01T13:26:54.541Z,99.90
2018-04-01T13:29:21.497Z,99.90
2018-04-01T13:31:48.484Z,99.90
2018-04-01T13:34:15.452Z,99.90
2018-04-01T13:36:43.214Z,99.90
2018-04-01T13:39:10.173Z,99.90
2018-04-01T13:41:37.931Z,99.90
2018-04-01T13:44:05.668Z,99.90
2018-04-01T13:46:32.658Z,99.90
2018-04-01T13:48:59.670Z,99.90
2018-04-01T13:51:26.693Z,99.90
2018-04-01T13:53:53.701Z,99.90
2018-04-01T13:56:20.686Z,99.90
2018-04-01T13:58:47.700Z,99.60
2018-04-01T14:01:14.695Z,99.40
2018-04-01T14:03:41.771Z,98.90
2018-04-01T14:06:08.781Z,99.10
2018-04-01T14:08:35.806Z,98.90
2018-04-01T14:11:02.790Z,97.50
2018-04-01T14:13:29.796Z,97.40
2018-04-01T14:15:57.484Z,97.90
2018-04-01T14:18:24.479Z,98.40
2018-04-01T14:20:51.498Z,98.00
2018-04-01T14:23:18.462Z,97.90
2018-04-01T14:25:45.482Z,97.90
2018-04-01T14:28:12.501Z,96.90
2018-04-01T14:30:39.470Z,97.70
2018-04-01T14:33:06.485Z,98.30
2018-04-01T14:35:33.480Z,98.80
2018-04-01T14:38:01.253Z,99.20
2018-04-01T14:40:28.285Z,99.20
2018-04-01T14:42:56.028Z,99.00
2018-04-01T14:45:22.992Z,99.00
2018-04-01T14:47:49.973Z,99.20
2018-04-01T14:50:16.997Z,98.70
2018-04-01T14:52:43.944Z,99.00
2018-04-01T14:55:10.966Z,98.90
2018-04-01T14:57:37.927Z,99.10
2018-04-01T15:00:05.717Z,99.50
2018-04-01T15:02:32.719Z,99.50
2018-04-01T15:04:59.677Z,98.60
2018-04-01T15:07:27.424Z,98.50
2018-04-01T15:09:54.428Z,98.40
2018-04-01T15:12:21.394Z,98.80
2018-04-01T15:14:48.388Z,98.70
2018-04-01T15:17:19.618Z,99.20
2018-04-01T15:19:47.385Z,99.90
2018-04-01T15:22:15.137Z,99.90
2018-04-01T15:24:42.149Z,99.90
2018-04-01T15:27:15.314Z,99.90
2018-04-01T15:29:42.312Z,99.90
2018-04-01T15:32:10.176Z,99.90
2018-04-01T15:34:37.186Z,99.90
2018-04-01T15:37:04.184Z,99.90
2018-04-01T15:39:31.962Z,99.90
2018-04-01T15:41:59.701Z,99.90
2018-04-01T15:44:26.676Z,99.90
2018-04-01T15:46:53.659Z,99.90
2018-04-01T15:49:20.710Z,99.90
2018-04-01T15:51:47.648Z,99.90
2018-04-01T15:54:14.656Z,99.90
2018-04-01T15:56:42.430Z,99.90
2018-04-01T15:59:09.388Z,99.90
2018-04-01T16:01:36.414Z,99.90
2018-04-01T16:04:04.188Z,99.90
2018-04-01T16:06:31.188Z,99.90
2018-04-01T16:08:58.201Z,99.90
2018-04-01T16:11:25.160Z,99.90
2018-04-01T16:13:52.226Z,99.90
2018-04-01T16:16:19.200Z,99.90
2018-04-01T16:18:47.141Z,99.90
2018-04-01T16:21:14.167Z,99.90
2018-04-01T16:23:41.328Z,99.90
2018-04-01T16:26:09.334Z,99.90
2018-04-01T16:28:36.351Z,99.90
2018-04-01T16:31:03.382Z,99.90
2018-04-01T16:33:30.471Z,99.90
2018-04-01T16:35:57.435Z,99.90
2018-04-01T16:38:24.401Z,99.90
2018-04-01T16:40:51.374Z,99.90
2018-04-01T16:43:18.380Z,99.90
2018-04-01T16:45:45.353Z,99.90
2018-04-01T16:48:12.374Z,99.90
2018-04-01T16:50:39.356Z,99.90
2018-04-01T16:53:06.342Z,99.90
2018-04-01T16:55:34.103Z,99.90
2018-04-01T16:58:01.090Z,99.90
2018-04-01T17:00:33.248Z,99.90
2018-04-01T17:03:00.231Z,99.90
2018-04-01T17:05:27.195Z,99.90
2018-04-01T17:07:54.943Z,99.90
2018-04-01T17:10:22.049Z,99.90
2018-04-01T17:12:49.018Z,99.90
2018-04-01T17:15:16.001Z,99.90
2018-04-01T17:17:43.797Z,99.90
2018-04-01T17:20:10.787Z,99.90
2018-04-01T17:22:37.745Z,99.90
2018-04-01T17:25:04.737Z,99.90
2018-04-01T17:27:31.719Z,99.90
2018-04-01T17:29:58.707Z,99.90
2018-04-01T17:32:25.705Z,99.90
2018-04-01T17:34:52.705Z,99.90
2018-04-01T17:37:19.723Z,99.90
2018-04-01T17:39:46.710Z,99.90
2018-04-01T17:42:13.702Z,99.90
2018-04-01T17:44:40.690Z,99.90
2018-04-01T17:47:07.656Z,99.90
2018-04-01T17:49:34.628Z,99.90
2018-04-01T17:52:01.630Z,99.90
2018-04-01T17:54:28.660Z,99.90
2018-04-01T17:56:56.385Z,99.90
2018-04-01T17:59:23.362Z,99.90
2018-04-01T18:01:51.134Z,99.90
2018-04-01T18:04:18.869Z,99.90
2018-04-01T18:06:45.831Z,99.90
2018-04-01T18:09:13.588Z,99.90
2018-04-01T18:11:40.553Z,99.90
2018-04-01T18:14:07.548Z,99.90
2018-04-01T18:16:34.534Z,99.90
2018-04-01T18:19:02.265Z,99.90
2018-04-01T18:21:31.197Z,99.90
2018-04-01T18:23:58.427Z,99.90
2018-04-01T18:26:25.408Z,99.90
2018-04-01T18:28:52.397Z,99.90
2018-04-01T18:31:19.492Z,99.90
2018-04-01T18:33:46.395Z,99.90
2018-04-01T18:36:13.388Z,99.90
2018-04-01T18:38:40.409Z,99.90
2018-04-01T18:41:08.204Z,99.90
2018-04-01T18:43:38.173Z,99.90
2018-04-01T18:46:05.193Z,99.90
2018-04-01T18:48:32.188Z,99.90
2018-04-01T18:50:59.914Z,99.90
2018-04-01T18:53:26.888Z,99.90
2018-04-01T18:55:58.448Z,99.90
2018-04-01T18:58:26.263Z,99.90
2018-04-01T19:00:53.262Z,99.90
2018-04-01T19:03:21.040Z,99.90
2018-04-01T19:05:48.146Z,99.90
2018-04-01T19:08:15.212Z,99.90
2018-04-01T19:10:43.005Z,99.90
2018-04-01T19:13:10.077Z,99.90
2018-04-01T19:15:37.149Z,99.90
2018-04-01T19:18:04.676Z,99.90
2018-04-01T19:20:32.177Z,99.90
2018-04-01T19:22:59.900Z,99.90
2018-04-01T19:25:27.438Z,99.90
2018-04-01T19:27:58.632Z,99.90
2018-04-01T19:30:26.260Z,99.90
2018-04-01T19:32:53.797Z,99.90
2018-04-01T19:35:21.362Z,99.90
2018-04-01T19:37:48.949Z,99.90
2018-04-01T19:40:16.487Z,99.90
2018-04-01T19:42:44.122Z,99.90
2018-04-01T19:45:11.709Z,99.90
2018-04-01T19:47:40.054Z,99.90
2018-04-01T19:50:08.446Z,99.90
2018-04-01T19:52:36.051Z,99.90
2018-04-01T19:55:03.653Z,99.90
2018-04-01T19:57:31.974Z,99.90
2018-04-01T19:59:59.668Z,99.90
2018-04-01T20:02:27.464Z,99.90
2018-04-01T20:04:54.978Z,99.90
2018-04-01T20:07:22.532Z,99.90
2018-04-01T20:09:50.495Z,99.90
2018-04-01T20:12:18.105Z,99.90
2018-04-01T20:14:46.487Z,99.90
2018-04-01T20:17:14.096Z,99.90
2018-04-01T20:19:41.668Z,99.90
2018-04-01T20:22:10.043Z,99.90
2018-04-01T20:24:38.407Z,99.90
2018-04-01T20:27:06.062Z,99.90
2018-04-01T20:29:39.837Z,99.90
2018-04-01T20:32:07.478Z,99.90
2018-04-01T20:34:35.238Z,99.90
2018-04-01T20:37:02.831Z,99.90
2018-04-01T20:39:30.578Z,99.90
2018-04-01T20:41:58.881Z,99.90
2018-04-01T20:44:26.469Z,99.90
2018-04-01T20:46:54.151Z,99.90
2018-04-01T20:49:21.708Z,99.90
2018-04-01T20:51:50.040Z,99.90
2018-04-01T20:54:17.591Z,99.90
2018-04-01T20:56:45.769Z,99.90
2018-04-01T20:59:20.951Z,99.90
2018-04-01T21:01:49.296Z,99.90
2018-04-01T21:04:17.445Z,99.90
2018-04-01T21:06:45.133Z,99.90
2018-04-01T21:09:13.413Z,99.90
2018-04-01T21:11:40.973Z,99.90
2018-04-01T21:14:08.555Z,99.90
2018-04-01T21:16:36.145Z,99.90
2018-04-01T21:19:04.718Z,99.90
2018-04-01T21:21:33.245Z,99.90
2018-04-01T21:24:00.812Z,99.90
2018-04-01T21:26:28.402Z,99.90
2018-04-01T21:28:56.059Z,99.90
2018-04-01T21:31:23.634Z,99.90
2018-04-01T21:33:51.960Z,99.90
2018-04-01T21:36:19.430Z,99.90
2018-04-01T21:38:46.909Z,99.90
2018-04-01T21:41:14.373Z,99.90
2018-04-01T21:43:41.845Z,99.90
2018-04-01T21:46:10.097Z,99.90
2018-04-01T21:48:38.731Z,99.90
2018-04-01T21:51:06.909Z,99.90
2018-04-01T21:53:34.477Z,99.90
2018-04-01T21:56:01.988Z,99.90
2018-04-01T21:58:29.452Z,99.90
2018-04-01T22:00:57.748Z,99.90
2018-04-01T22:03:25.204Z,99.90
2018-04-01T22:05:52.671Z,99.90
2018-04-01T22:08:20.166Z,99.90
2018-04-01T22:10:47.649Z,99.90
2018-04-01T22:13:16.320Z,99.90
2018-04-01T22:15:43.807Z,99.90
2018-04-01T22:18:12.084Z,99.90
2018-04-01T22:20:40.315Z,99.90
2018-04-01T22:23:12.806Z,99.90
2018-04-01T22:25:41.053Z,99.90
2018-04-01T22:28:09.440Z,99.90
2018-04-01T22:30:36.901Z,99.90
2018-04-01T22:33:04.377Z,99.90
2018-04-01T22:35:31.846Z,99.90
2018-04-01T22:38:00.134Z,99.90
2018-04-01T22:40:27.616Z,99.90
2018-04-01T22:42:55.105Z,99.90
2018-04-01T22:45:22.582Z,99.90
2018-04-01T22:47:50.068Z,99.80
2018-04-01T22:50:17.556Z,99.90
2018-04-01T22:52:45.020Z,99.80
2018-04-01T22:55:12.489Z,99.90
2018-04-01T22:57:39.964Z,99.90
2018-04-01T23:00:07.495Z,99.70
2018-04-01T23:02:34.968Z,99.60
2018-04-01T23:05:02.487Z,99.80
2018-04-01T23:07:30.024Z,99.90
2018-04-01T23:09:58.290Z,99.70
2018-04-01T23:12:26.545Z,99.80
2018-04-01T23:14:54.052Z,99.80
2018-04-01T23:17:22.094Z,99.90
2018-04-01T23:19:49.598Z,99.90
2018-04-01T23:22:23.225Z,99.90
2018-04-01T23:24:50.729Z,99.90
2018-04-01T23:27:18.211Z,99.90
2018-04-01T23:29:45.708Z,99.90
2018-04-01T23:32:13.177Z,99.90
2018-04-01T23:34:41.406Z,99.70
2018-04-01T23:37:08.901Z,99.90
2018-04-01T23:39:36.376Z,99.90
2018-04-01T23:42:04.620Z,99.80
2018-04-01T23:44:32.089Z,99.80
2018-04-01T23:46:59.593Z,99.90
2018-04-01T23:49:27.086Z,99.90
2018-04-01T23:51:54.563Z,99.90
2018-04-01T23:54:22.016Z,99.90
2018-04-01T23:56:49.511Z,99.90
2018-04-01T23:59:16.997Z,99.90
